Time;durP1;ratioP1;P1;durP2;ratioP2;P2;SDS_P1;SDS_P2;PMS_P1;PMS_P2;Temp;Humidity;BMP_temperature;BMP_pressure;BME280_temperature;BME280_humidity;BME280_pressure;Samples;Min_cycle;Max_cycle;Signal;HPM_P1;HPM_P2
2023/08/10 00:02:15;;;;;;;9.07;4.35;;;;;;;;;;5026597;28;20053;-60
2023/08/10 00:04:41;;;;;;;5.75;3.90;;;;;;;;;;5009845;28;20048;-59
2023/08/10 00:07:07;;;;;;;9.43;4.13;;;;;;;;;;5031785;28;20424;-59
2023/08/10 00:09:33;;;;;;;6.15;3.72;;;;;;;;;;5026635;28;20044;-59
2023/08/10 00:11:59;;;;;;;7.03;4.30;;;;;;;;;;5026774;28;20060;-59
2023/08/10 00:14:25;;;;;;;5.35;3.58;;;;;;;;;;5024490;28;20036;-59
2023/08/10 00:16:51;;;;;;;7.22;3.70;;;;;;;;;;5026044;28;20062;-59
2023/08/10 00:19:17;;;;;;;6.50;3.78;;;;;;;;;;5024096;28;20141;-60
2023/08/10 00:21:44;;;;;;;6.63;3.70;;;;;;;;;;5027470;28;20428;-59
2023/08/10 00:24:10;;;;;;;5.60;3.60;;;;;;;;;;5024313;28;20045;-59
2023/08/10 00:26:36;;;;;;;7.03;3.55;;;;;;;;;;5022666;28;20050;-59
2023/08/10 00:29:02;;;;;;;5.13;3.25;;;;;;;;;;5020608;28;20053;-59
2023/08/10 00:31:28;;;;;;;7.25;3.58;;;;;;;;;;5016884;28;20029;-60
2023/08/10 00:33:54;;;;;;;6.50;3.78;;;;;;;;;;5026586;28;20037;-59
2023/08/10 00:36:21;;;;;;;5.30;3.42;;;;;;;;;;5021892;28;20048;-59
2023/08/10 00:38:47;;;;;;;5.65;3.53;;;;;;;;;;5021657;28;20040;-60
2023/08/10 00:41:13;;;;;;;5.72;3.10;;;;;;;;;;5026266;28;20046;-60
2023/08/10 00:43:42;;;;;;;5.47;3.65;;;;;;;;;;5024261;28;20063;-60
2023/08/10 00:46:10;;;;;;;11.00;3.55;;;;;;;;;;5022241;28;20042;-59
2023/08/10 00:48:36;;;;;;;6.97;3.90;;;;;;;;;;5023676;28;20052;-59
2023/08/10 00:51:03;;;;;;;8.48;3.50;;;;;;;;;;5021410;28;20451;-60
2023/08/10 00:53:30;;;;;;;5.25;3.38;;;;;;;;;;5020295;28;20382;-59
2023/08/10 00:55:56;;;;;;;5.63;3.53;;;;;;;;;;5024769;28;20517;-59
2023/08/10 00:58:26;;;;;;;5.30;3.53;;;;;;;;;;5003931;28;20412;-59
2023/08/10 01:00:52;;;;;;;6.68;3.33;;;;;;;;;;5025497;28;20325;-60
2023/08/10 01:03:18;;;;;;;6.38;3.60;;;;;;;;;;5026813;28;20228;-59
2023/08/10 01:06:09;;;;;;;6.80;3.60;;;;;;;;;;5025746;28;20045;-60
2023/08/10 01:08:50;;;;;;;6.03;3.50;;;;;;;;;;5026023;28;20046;-60
2023/08/10 01:11:35;;;;;;;5.47;3.47;;;;;;;;;;5029496;28;20041;-60
2023/08/10 01:14:03;;;;;;;6.88;3.58;;;;;;;;;;5027625;28;20049;-59
2023/08/10 01:16:31;;;;;;;6.50;3.40;;;;;;;;;;5024640;28;20567;-60
2023/08/10 01:18:58;;;;;;;6.45;3.40;;;;;;;;;;5026044;28;20408;-59
2023/08/10 01:21:53;;;;;;;8.30;3.55;;;;;;;;;;5026003;28;20029;-60
2023/08/10 01:24:25;;;;;;;7.78;3.58;;;;;;;;;;5019299;28;20393;-59
2023/08/10 01:26:55;;;;;;;7.05;3.83;;;;;;;;;;5015491;28;20052;-59
2023/08/10 01:29:23;;;;;;;5.10;3.05;;;;;;;;;;5022848;28;20390;-59
2023/08/10 01:31:50;;;;;;;6.82;4.10;;;;;;;;;;5024581;28;20390;-59
2023/08/10 01:34:16;;;;;;;6.60;3.60;;;;;;;;;;5023208;28;20032;-57
2023/08/10 01:36:42;;;;;;;6.47;3.75;;;;;;;;;;5024486;28;20049;-60
2023/08/10 01:39:08;;;;;;;6.85;3.70;;;;;;;;;;5022708;28;20064;-59
2023/08/10 01:41:35;;;;;;;7.45;3.75;;;;;;;;;;5024893;28;20052;-59
2023/08/10 01:44:01;;;;;;;8.15;3.90;;;;;;;;;;5022092;28;20049;-59
2023/08/10 01:46:31;;;;;;;7.22;3.88;;;;;;;;;;5024550;28;20052;-60
2023/08/10 01:48:57;;;;;;;;;;;;;;;;;;5023950;28;20056;-59
2023/08/10 01:51:26;;;;;;;5.00;3.47;;;;;;;;;;5023287;28;20438;-58
2023/08/10 01:53:56;;;;;;;8.13;4.20;;;;;;;;;;5049230;28;20445;-61
2023/08/10 01:56:22;;;;;;;6.15;4.07;;;;;;;;;;5020649;28;20056;-60
2023/08/10 01:58:48;;;;;;;8.02;3.95;;;;;;;;;;5021212;28;20049;-59
2023/08/10 02:01:14;;;;;;;10.15;4.20;;;;;;;;;;5026582;28;20479;-59
2023/08/10 02:03:40;;;;;;;6.38;3.80;;;;;;;;;;5022218;28;20057;-59
2023/08/10 02:06:07;;;;;;;8.23;3.83;;;;;;;;;;5025868;28;20052;-59
2023/08/10 02:08:33;;;;;;;5.57;3.63;;;;;;;;;;5023598;28;20045;-58
2023/08/10 02:10:59;;;;;;;6.03;3.92;;;;;;;;;;5027170;28;20045;-59
2023/08/10 02:13:25;;;;;;;6.32;3.83;;;;;;;;;;5024397;28;20428;-59
2023/08/10 02:15:51;;;;;;;6.90;3.80;;;;;;;;;;5020873;28;20048;-59
2023/08/10 02:18:18;;;;;;;6.82;3.70;;;;;;;;;;5024239;28;20033;-59
2023/08/10 02:20:45;;;;;;;5.95;3.95;;;;;;;;;;5025926;28;20049;-59
2023/08/10 02:23:11;;;;;;;7.82;3.90;;;;;;;;;;5017901;28;20042;-59
2023/08/10 02:25:37;;;;;;;5.05;3.40;;;;;;;;;;5021834;28;20030;-59
2023/08/10 02:28:03;;;;;;;6.20;3.55;;;;;;;;;;5021872;28;20769;-59
2023/08/10 02:30:29;;;;;;;6.18;3.78;;;;;;;;;;5023941;28;20049;-59
2023/08/10 02:32:55;;;;;;;4.25;2.90;;;;;;;;;;5019522;28;20108;-60
2023/08/10 02:35:22;;;;;;;6.00;3.10;;;;;;;;;;5021145;28;20299;-59
2023/08/10 02:37:49;;;;;;;8.20;3.75;;;;;;;;;;5015508;28;20052;-60
2023/08/10 02:40:15;;;;;;;5.78;3.83;;;;;;;;;;5023408;28;20033;-60
2023/08/10 02:42:42;;;;;;;5.28;3.42;;;;;;;;;;5022356;28;20489;-59
2023/08/10 02:45:09;;;;;;;6.18;3.88;;;;;;;;;;5022453;28;20412;-58
2023/08/10 02:47:35;;;;;;;6.80;3.90;;;;;;;;;;5020097;28;20037;-59
2023/08/10 02:50:05;;;;;;;6.55;3.63;;;;;;;;;;5022549;28;20049;-59
2023/08/10 02:52:31;;;;;;;7.28;4.10;;;;;;;;;;5019213;28;20397;-59
2023/08/10 02:54:57;;;;;;;8.93;4.00;;;;;;;;;;5021818;28;20529;-59
2023/08/10 02:57:23;;;;;;;5.60;3.88;;;;;;;;;;5020066;28;20045;-59
2023/08/10 02:59:49;;;;;;;6.18;3.95;;;;;;;;;;5021560;28;20041;-58
2023/08/10 03:02:18;;;;;;;8.00;4.15;;;;;;;;;;5027598;28;20491;-59
2023/08/10 03:04:46;;;;;;;6.78;3.70;;;;;;;;;;5018886;28;20046;-59
2023/08/10 03:07:13;;;;;;;4.78;3.22;;;;;;;;;;5025818;28;20420;-59
2023/08/10 03:09:41;;;;;;;7.38;4.18;;;;;;;;;;5025791;28;20152;-59
2023/08/10 03:12:09;;;;;;;5.40;3.97;;;;;;;;;;5025497;28;20045;-59
2023/08/10 03:14:35;;;;;;;8.77;4.68;;;;;;;;;;5023914;28;20033;-59
2023/08/10 03:17:02;;;;;;;6.97;4.50;;;;;;;;;;5028890;28;20049;-59
2023/08/10 03:19:28;;;;;;;7.88;4.20;;;;;;;;;;5024072;28;20037;-59
2023/08/10 03:21:54;;;;;;;6.95;4.45;;;;;;;;;;5025128;28;20056;-58
2023/08/10 03:24:20;;;;;;;6.82;4.20;;;;;;;;;;5019672;28;20498;-59
2023/08/10 03:26:47;;;;;;;6.82;3.92;;;;;;;;;;5027194;28;20053;-60
2023/08/10 03:29:13;;;;;;;7.75;4.38;;;;;;;;;;5024762;28;20037;-59
2023/08/10 03:31:39;;;;;;;6.60;4.30;;;;;;;;;;5023236;28;20060;-59
2023/08/10 03:34:08;;;;;;;6.93;4.40;;;;;;;;;;5022494;28;20042;-60
2023/08/10 03:36:34;;;;;;;8.00;5.13;;;;;;;;;;5019159;28;20299;-60
2023/08/10 03:39:01;;;;;;;8.68;5.05;;;;;;;;;;5023752;28;20481;-58
2023/08/10 03:41:27;;;;;;;9.80;5.75;;;;;;;;;;5028046;28;20033;-59
2023/08/10 03:43:53;;;;;;;10.27;6.18;;;;;;;;;;5025872;28;20042;-59
2023/08/10 03:46:19;;;;;;;12.15;6.60;;;;;;;;;;5025264;28;20042;-59
2023/08/10 03:48:45;;;;;;;8.10;5.28;;;;;;;;;;5025410;28;20041;-59
2023/08/10 03:51:11;;;;;;;8.80;5.13;;;;;;;;;;5026801;28;20412;-59
2023/08/10 03:53:37;;;;;;;9.05;5.70;;;;;;;;;;5021998;28;20037;-58
2023/08/10 03:56:03;;;;;;;7.70;4.85;;;;;;;;;;5024477;28;20046;-59
2023/08/10 03:58:30;;;;;;;8.27;4.55;;;;;;;;;;5027908;28;20497;-59
2023/08/10 04:00:56;;;;;;;9.18;4.65;;;;;;;;;;5013558;28;20037;-59
2023/08/10 04:03:22;;;;;;;6.88;4.13;;;;;;;;;;5024356;28;20071;-58
2023/08/10 04:05:48;;;;;;;6.90;4.30;;;;;;;;;;5026413;28;20040;-59
2023/08/10 04:08:14;;;;;;;7.85;4.65;;;;;;;;;;5028163;28;20060;-59
2023/08/10 04:10:40;;;;;;;7.03;4.50;;;;;;;;;;5027648;28;20048;-58
2023/08/10 04:13:06;;;;;;;10.00;5.22;;;;;;;;;;5020285;28;20037;-59
2023/08/10 04:15:33;;;;;;;9.52;4.70;;;;;;;;;;5025243;28;20042;-59
2023/08/10 04:18:00;;;;;;;7.20;4.10;;;;;;;;;;5025691;28;20049;-59
2023/08/10 04:20:26;;;;;;;7.85;4.07;;;;;;;;;;5027542;28;20049;-59
2023/08/10 04:22:52;;;;;;;8.82;4.55;;;;;;;;;;5020170;28;20033;-58
2023/08/10 04:25:18;;;;;;;6.18;4.15;;;;;;;;;;5022612;28;20034;-58
2023/08/10 04:27:44;;;;;;;9.82;4.82;;;;;;;;;;5026687;28;20055;-59
2023/08/10 04:30:12;;;;;;;5.55;3.80;;;;;;;;;;5025788;28;20057;-59
2023/08/10 04:32:38;;;;;;;8.48;4.70;;;;;;;;;;5015933;28;20052;-58
2023/08/10 04:35:04;;;;;;;9.68;4.95;;;;;;;;;;5023761;28;20029;-58
2023/08/10 04:37:31;;;;;;;10.02;5.43;;;;;;;;;;5023037;28;20032;-58
2023/08/10 04:39:57;;;;;;;8.40;4.72;;;;;;;;;;5027955;28;20049;-59
2023/08/10 04:42:23;;;;;;;7.80;4.47;;;;;;;;;;5025650;28;20045;-59
2023/08/10 04:44:49;;;;;;;9.45;4.53;;;;;;;;;;5023674;28;20025;-59
2023/08/10 04:47:16;;;;;;;8.90;4.60;;;;;;;;;;5024953;28;20046;-59
2023/08/10 04:49:42;;;;;;;6.97;4.45;;;;;;;;;;5021573;28;20041;-59
2023/08/10 04:52:08;;;;;;;7.75;4.85;;;;;;;;;;5026530;28;20056;-58
2023/08/10 04:54:34;;;;;;;8.07;4.50;;;;;;;;;;5019239;28;20040;-59
2023/08/10 04:57:00;;;;;;;7.97;4.72;;;;;;;;;;5011111;28;20041;-59
2023/08/10 04:59:26;;;;;;;8.93;4.78;;;;;;;;;;5022808;28;20045;-59
2023/08/10 05:01:52;;;;;;;9.52;5.00;;;;;;;;;;5020565;28;20038;-58
2023/08/10 05:04:19;;;;;;;7.82;4.88;;;;;;;;;;5021991;28;20061;-59
2023/08/10 05:06:45;;;;;;;7.30;4.70;;;;;;;;;;5021914;28;20044;-56
2023/08/10 05:09:11;;;;;;;14.38;5.18;;;;;;;;;;5027412;28;20045;-58
2023/08/10 05:11:38;;;;;;;9.10;5.15;;;;;;;;;;5020238;28;20029;-58
2023/08/10 05:14:04;;;;;;;7.82;4.80;;;;;;;;;;5022447;28;20045;-57
2023/08/10 05:16:30;;;;;;;6.95;4.82;;;;;;;;;;5020497;28;20501;-57
2023/08/10 05:18:56;;;;;;;11.30;5.38;;;;;;;;;;5024952;28;20056;-58
2023/08/10 05:21:22;;;;;;;8.63;5.60;;;;;;;;;;5013873;28;20045;-59
2023/08/10 05:23:48;;;;;;;7.82;4.93;;;;;;;;;;5016520;28;20449;-58
2023/08/10 05:26:15;;;;;;;7.45;4.40;;;;;;;;;;5021713;28;20038;-58
2023/08/10 05:28:41;;;;;;;11.10;5.85;;;;;;;;;;5019763;28;20041;-58
2023/08/10 05:31:08;;;;;;;10.23;5.50;;;;;;;;;;5023697;28;20049;-59
2023/08/10 05:33:34;;;;;;;8.50;5.47;;;;;;;;;;5019101;28;20432;-58
2023/08/10 05:36:00;;;;;;;9.38;4.75;;;;;;;;;;5022135;28;20064;-60
2023/08/10 05:38:26;;;;;;;8.02;5.10;;;;;;;;;;5023136;28;20057;-60
2023/08/10 05:40:54;;;;;;;11.02;5.28;;;;;;;;;;5021811;28;20049;-60
2023/08/10 05:43:20;;;;;;;9.02;4.63;;;;;;;;;;5020161;28;20041;-61
2023/08/10 05:45:46;;;;;;;7.47;5.05;;;;;;;;;;5023249;28;20049;-60
2023/08/10 05:48:12;;;;;;;12.23;5.82;;;;;;;;;;5019183;28;20053;-60
2023/08/10 05:50:39;;;;;;;12.20;6.45;;;;;;;;;;5020106;28;20046;-60
2023/08/10 05:53:06;;;;;;;9.93;5.80;;;;;;;;;;5019392;28;20517;-59
2023/08/10 05:55:33;;;;;;;13.55;7.28;;;;;;;;;;5019509;28;20048;-60
2023/08/10 05:58:00;;;;;;;11.98;6.78;;;;;;;;;;5018590;28;20061;-59
2023/08/10 06:00:27;;;;;;;11.30;6.90;;;;;;;;;;5021733;28;20041;-59
2023/08/10 06:02:53;;;;;;;13.18;6.57;;;;;;;;;;5027187;28;20057;-59
2023/08/10 06:05:20;;;;;;;11.18;6.57;;;;;;;;;;5023014;28;20042;-59
2023/08/10 06:07:47;;;;;;;10.88;5.80;;;;;;;;;;5022514;28;20408;-59
2023/08/10 06:10:15;;;;;;;10.15;5.97;;;;;;;;;;5028153;28;20033;-59
2023/08/10 06:12:44;;;;;;;8.80;5.75;;;;;;;;;;5027029;28;20053;-59
2023/08/10 06:15:10;;;;;;;12.02;5.65;;;;;;;;;;5020891;28;20034;-59
2023/08/10 06:17:40;;;;;;;11.48;6.05;;;;;;;;;;5022303;28;20046;-59
2023/08/10 06:20:21;;;;;;;10.27;5.70;;;;;;;;;;5020506;28;20053;-59
2023/08/10 06:22:48;;;;;;;12.52;6.15;;;;;;;;;;5013424;28;20520;-59
2023/08/10 06:25:14;;;;;;;11.10;6.10;;;;;;;;;;5024034;28;20048;-60
2023/08/10 06:27:41;;;;;;;9.38;5.82;;;;;;;;;;5017803;28;20048;-59
2023/08/10 06:30:08;;;;;;;9.48;5.80;;;;;;;;;;5022012;28;20033;-59
2023/08/10 06:32:35;;;;;;;10.98;5.45;;;;;;;;;;5020379;28;20041;-58
2023/08/10 06:35:02;;;;;;;9.35;5.32;;;;;;;;;;5019228;28;20045;-59
2023/08/10 06:37:29;;;;;;;8.35;5.32;;;;;;;;;;5024249;28;20033;-59
2023/08/10 06:39:55;;;;;;;10.13;5.75;;;;;;;;;;5024749;28;20040;-58
2023/08/10 06:42:22;;;;;;;8.25;4.72;;;;;;;;;;5022179;28;20044;-59
2023/08/10 06:44:56;;;;;;;7.53;4.78;;;;;;;;;;5021555;28;20048;-59
2023/08/10 06:47:23;;;;;;;9.95;5.57;;;;;;;;;;5022299;28;20045;-60
2023/08/10 06:49:49;;;;;;;10.18;5.45;;;;;;;;;;5022580;28;20042;-59
2023/08/10 06:52:15;;;;;;;12.55;5.85;;;;;;;;;;5020939;28;20037;-58
2023/08/10 06:54:41;;;;;;;9.23;5.05;;;;;;;;;;5018761;28;20045;-59
2023/08/10 06:57:07;;;;;;;12.50;5.22;;;;;;;;;;5025569;28;20056;-58
2023/08/10 06:59:33;;;;;;;8.77;4.95;;;;;;;;;;5021634;28;20045;-58
2023/08/10 07:01:59;;;;;;;9.40;5.35;;;;;;;;;;5024288;28;20041;-58
2023/08/10 07:04:25;;;;;;;8.38;5.20;;;;;;;;;;5020280;28;20500;-58
2023/08/10 07:06:52;;;;;;;8.75;4.72;;;;;;;;;;5020962;28;20413;-59
2023/08/10 07:09:22;;;;;;;9.82;5.43;;;;;;;;;;5025541;28;20046;-59
2023/08/10 07:11:49;;;;;;;10.93;5.60;;;;;;;;;;5025351;28;20041;-59
2023/08/10 07:14:15;;;;;;;8.00;4.82;;;;;;;;;;5041704;28;20493;-59
2023/08/10 07:16:41;;;;;;;6.90;4.97;;;;;;;;;;5019423;28;20037;-59
2023/08/10 07:19:07;;;;;;;12.57;5.47;;;;;;;;;;5018575;28;20505;-59
2023/08/10 07:21:33;;;;;;;11.45;4.72;;;;;;;;;;5012959;28;20049;-58
2023/08/10 07:23:59;;;;;;;8.30;5.25;;;;;;;;;;5018126;28;20046;-59
2023/08/10 07:26:26;;;;;;;9.43;4.90;;;;;;;;;;5020994;28;20057;-59
2023/08/10 07:28:52;;;;;;;9.50;5.03;;;;;;;;;;5016583;28;20029;-59
2023/08/10 07:31:19;;;;;;;7.47;5.18;;;;;;;;;;5023578;28;20046;-59
2023/08/10 07:33:45;;;;;;;9.95;5.03;;;;;;;;;;5019390;28;20046;-59
2023/08/10 07:36:12;;;;;;;8.25;5.18;;;;;;;;;;5023809;28;20041;-59
2023/08/10 07:38:38;;;;;;;9.52;5.07;;;;;;;;;;5021306;28;20041;-59
2023/08/10 07:41:04;;;;;;;8.52;5.45;;;;;;;;;;5023728;28;20505;-58
2023/08/10 07:43:30;;;;;;;7.13;4.90;;;;;;;;;;5015272;28;20041;-59
2023/08/10 07:45:56;;;;;;;6.68;4.72;;;;;;;;;;5021493;28;20829;-58
2023/08/10 07:48:22;;;;;;;7.93;5.45;;;;;;;;;;5019748;28;20052;-60
2023/08/10 07:50:49;;;;;;;7.65;4.70;;;;;;;;;;5023348;28;20041;-59
2023/08/10 07:53:15;;;;;;;7.28;4.97;;;;;;;;;;5022961;28;20044;-60
2023/08/10 07:55:41;;;;;;;7.80;4.85;;;;;;;;;;5022120;28;20420;-59
2023/08/10 07:58:07;;;;;;;8.38;5.25;;;;;;;;;;5023779;28;20519;-60
2023/08/10 08:00:35;;;;;;;9.73;5.40;;;;;;;;;;5025760;28;20041;-59
2023/08/10 08:03:02;;;;;;;7.85;4.97;;;;;;;;;;5028285;28;20049;-60
2023/08/10 08:05:28;;;;;;;7.47;4.13;;;;;;;;;;5025175;28;20041;-60
2023/08/10 08:07:54;;;;;;;7.95;4.45;;;;;;;;;;5026082;28;20053;-60
2023/08/10 08:10:21;;;;;;;7.95;5.00;;;;;;;;;;5024319;28;20042;-59
2023/08/10 08:12:47;;;;;;;9.43;4.80;;;;;;;;;;5030053;28;20034;-60
2023/08/10 08:15:13;;;;;;;6.40;4.07;;;;;;;;;;5024795;28;20045;-60
2023/08/10 08:18:17;;;;;;;6.70;4.30;;;;;;;;;;5021868;28;20064;-58
2023/08/10 08:20:43;;;;;;;7.22;4.20;;;;;;;;;;5021345;28;20068;-60
2023/08/10 08:23:09;;;;;;;7.35;4.35;;;;;;;;;;5021323;28;20042;-60
2023/08/10 08:25:35;;;;;;;9.93;5.03;;;;;;;;;;5020812;28;20089;-60
2023/08/10 08:28:01;;;;;;;6.38;4.70;;;;;;;;;;5023194;28;20033;-60
2023/08/10 08:30:29;;;;;;;7.88;5.15;;;;;;;;;;5020851;28;20045;-60
2023/08/10 08:32:55;;;;;;;9.68;5.07;;;;;;;;;;5021122;28;20040;-60
2023/08/10 08:35:21;;;;;;;7.40;4.68;;;;;;;;;;5017615;28;20536;-60
2023/08/10 08:37:47;;;;;;;8.48;4.82;;;;;;;;;;5019169;28;20052;-59
2023/08/10 08:40:13;;;;;;;7.50;5.00;;;;;;;;;;5013538;28;20033;-60
2023/08/10 08:42:41;;;;;;;7.75;4.45;;;;;;;;;;5014087;28;20539;-61
2023/08/10 08:45:08;;;;;;;11.20;5.28;;;;;;;;;;5022097;28;20677;-60
2023/08/10 08:47:34;;;;;;;7.60;4.65;;;;;;;;;;5020946;28;20041;-60
2023/08/10 08:50:02;;;;;;;6.72;4.70;;;;;;;;;;5019970;28;20063;-59
2023/08/10 08:52:29;;;;;;;9.73;4.60;;;;;;;;;;5021047;28;20037;-60
2023/08/10 08:54:57;;;;;;;6.00;4.18;;;;;;;;;;5024258;28;20481;-60
2023/08/10 08:57:23;;;;;;;7.23;4.37;;;;;;;;;;5019953;28;20049;-59
2023/08/10 08:59:50;;;;;;;5.85;4.43;;;;;;;;;;5015577;28;20323;-60
2023/08/10 09:02:16;;;;;;;7.25;4.28;;;;;;;;;;5023663;28;20053;-60
2023/08/10 09:04:42;;;;;;;6.45;4.65;;;;;;;;;;5023739;28;20060;-60
2023/08/10 09:07:08;;;;;;;9.00;5.07;;;;;;;;;;5025144;28;20232;-60
2023/08/10 09:09:35;;;;;;;7.65;4.72;;;;;;;;;;5019530;28;20045;-60
2023/08/10 09:12:32;;;;;;;8.43;4.68;;;;;;;;;;5023746;28;20059;-60
2023/08/10 09:15:19;;;;;;;8.85;4.93;;;;;;;;;;5017306;28;20049;-61
2023/08/10 09:17:47;;;;;;;7.57;4.47;;;;;;;;;;5018338;28;20559;-59
2023/08/10 09:20:28;;;;;;;9.57;4.85;;;;;;;;;;5017885;28;20417;-60
2023/08/10 09:22:57;;;;;;;7.65;5.07;;;;;;;;;;5015063;28;20052;-60
2023/08/10 09:25:24;;;;;;;9.50;4.63;;;;;;;;;;5022671;28;20405;-60
2023/08/10 09:27:51;;;;;;;8.43;4.32;;;;;;;;;;5018987;28;20053;-60
2023/08/10 09:30:19;;;;;;;7.25;5.10;;;;;;;;;;5023033;28;20045;-60
2023/08/10 09:32:46;;;;;;;6.60;4.57;;;;;;;;;;5024080;28;20083;-60
2023/08/10 09:35:15;;;;;;;8.63;5.07;;;;;;;;;;5026961;28;20049;-60
2023/08/10 09:37:41;;;;;;;6.40;4.63;;;;;;;;;;5021811;28;20041;-60
2023/08/10 09:40:10;;;;;;;8.70;5.40;;;;;;;;;;5022232;28;20355;-60
2023/08/10 09:42:41;;;;;;;6.75;4.60;;;;;;;;;;5018803;28;20476;-61
2023/08/10 09:45:09;;;;;;;6.20;4.60;;;;;;;;;;5024718;28;20064;-60
2023/08/10 09:47:37;;;;;;;8.07;4.47;;;;;;;;;;5018757;28;20065;-61
2023/08/10 09:50:06;;;;;;;8.88;4.47;;;;;;;;;;5019512;28;20057;-60
2023/08/10 09:52:36;;;;;;;6.15;4.28;;;;;;;;;;5021501;28;20029;-61
2023/08/10 09:55:04;;;;;;;6.25;4.50;;;;;;;;;;5029523;28;20040;-59
2023/08/10 09:57:30;;;;;;;7.20;4.20;;;;;;;;;;5024987;28;20049;-60
2023/08/10 09:59:57;;;;;;;4.78;4.10;;;;;;;;;;5022357;28;20057;-60
2023/08/10 10:02:24;;;;;;;5.82;4.53;;;;;;;;;;5022046;28;20048;-58
2023/08/10 10:04:51;;;;;;;6.97;4.20;;;;;;;;;;5025290;28;20044;-58
2023/08/10 10:07:23;;;;;;;6.15;4.45;;;;;;;;;;5023921;28;20133;-59
2023/08/10 10:09:50;;;;;;;8.85;4.80;;;;;;;;;;5022253;28;20044;-58
2023/08/10 10:12:17;;;;;;;7.18;4.43;;;;;;;;;;5022813;28;20060;-59
2023/08/10 10:14:45;;;;;;;7.85;4.05;;;;;;;;;;5023343;28;20049;-58
2023/08/10 10:17:14;;;;;;;5.80;4.35;;;;;;;;;;5023582;28;20041;-58
2023/08/10 10:19:42;;;;;;;6.45;4.47;;;;;;;;;;5018538;28;20056;-58
2023/08/10 10:22:10;;;;;;;5.75;3.83;;;;;;;;;;5020055;28;20505;-59
2023/08/10 10:24:43;;;;;;;4.63;3.78;;;;;;;;;;5019814;28;20048;-57
2023/08/10 10:27:11;;;;;;;5.22;4.05;;;;;;;;;;5020491;28;20038;-59
2023/08/10 10:29:51;;;;;;;4.78;3.92;;;;;;;;;;5019546;28;20045;-58
2023/08/10 10:32:19;;;;;;;9.60;4.05;;;;;;;;;;5023393;28;20037;-59
2023/08/10 10:34:46;;;;;;;5.27;4.30;;;;;;;;;;5015227;28;20034;-58
2023/08/10 10:37:13;;;;;;;4.38;3.58;;;;;;;;;;5019976;28;20045;-58
2023/08/10 10:39:41;;;;;;;4.70;3.83;;;;;;;;;;5020524;28;20057;-59
2023/08/10 10:42:11;;;;;;;4.32;3.63;;;;;;;;;;5024262;28;20080;-58
2023/08/10 10:45:01;;;;;;;5.75;4.00;;;;;;;;;;5021070;28;20032;-58
2023/08/10 10:47:40;;;;;;;6.32;3.60;;;;;;;;;;5022663;28;20041;-59
2023/08/10 10:50:14;;;;;;;5.30;3.67;;;;;;;;;;5023502;28;20057;-59
2023/08/10 10:52:40;;;;;;;5.97;3.60;;;;;;;;;;5022433;28;20527;-60
2023/08/10 10:55:09;;;;;;;5.43;3.83;;;;;;;;;;5019997;28;20045;-59
2023/08/10 10:57:38;;;;;;;4.65;3.50;;;;;;;;;;5019289;28;20025;-59
2023/08/10 11:00:05;;;;;;;4.60;3.58;;;;;;;;;;5022877;28;20056;-59
2023/08/10 11:02:33;;;;;;;4.75;3.38;;;;;;;;;;5018401;28;20040;-59
2023/08/10 11:04:59;;;;;;;5.70;3.50;;;;;;;;;;5020493;28;20489;-59
2023/08/10 11:07:25;;;;;;;3.67;3.22;;;;;;;;;;5020917;28;20034;-60
2023/08/10 11:09:51;;;;;;;3.90;3.13;;;;;;;;;;5026349;28;20569;-60
2023/08/10 11:12:18;;;;;;;4.07;3.15;;;;;;;;;;5024129;28;20072;-61
2023/08/10 11:14:44;;;;;;;4.07;3.00;;;;;;;;;;5016997;28;20048;-60
2023/08/10 11:17:10;;;;;;;3.63;2.88;;;;;;;;;;5023595;28;20037;-60
2023/08/10 11:19:36;;;;;;;4.00;3.30;;;;;;;;;;5016864;28;20049;-60
2023/08/10 11:22:02;;;;;;;5.68;2.90;;;;;;;;;;5021517;28;20056;-60
2023/08/10 11:24:28;;;;;;;3.38;2.47;;;;;;;;;;5019996;28;20033;-61
2023/08/10 11:26:56;;;;;;;3.92;3.00;;;;;;;;;;5019651;28;20038;-61
2023/08/10 11:29:22;;;;;;;3.65;2.75;;;;;;;;;;5018674;28;20049;-61
2023/08/10 11:31:49;;;;;;;4.03;2.90;;;;;;;;;;5021867;28;20053;-61
2023/08/10 11:34:23;;;;;;;3.58;2.67;;;;;;;;;;5023298;28;20041;-61
2023/08/10 11:36:51;;;;;;;3.20;2.50;;;;;;;;;;5021411;28;20049;-61
2023/08/10 11:39:18;;;;;;;5.45;2.80;;;;;;;;;;5023782;28;20720;-61
2023/08/10 11:41:45;;;;;;;4.05;2.90;;;;;;;;;;5024901;28;20068;-61
2023/08/10 11:44:26;;;;;;;4.80;3.28;;;;;;;;;;5025989;28;20544;-61
2023/08/10 11:46:57;;;;;;;3.22;2.72;;;;;;;;;;5025657;28;20135;-60
2023/08/10 11:49:28;;;;;;;3.08;2.65;;;;;;;;;;5026713;28;20033;-61
2023/08/10 11:51:59;;;;;;;3.40;2.80;;;;;;;;;;5027784;28;20038;-59
2023/08/10 11:54:34;;;;;;;4.15;2.63;;;;;;;;;;5024094;28;20045;-60
2023/08/10 11:57:11;;;;;;;3.65;2.60;;;;;;;;;;5029851;28;20509;-60
2023/08/10 11:59:37;;;;;;;3.65;2.70;;;;;;;;;;5026757;28;20042;-61
2023/08/10 12:02:04;;;;;;;2.92;2.58;;;;;;;;;;5027834;28;20529;-60
2023/08/10 12:04:31;;;;;;;5.13;2.55;;;;;;;;;;5026880;28;20065;-61
2023/08/10 12:06:57;;;;;;;2.65;2.20;;;;;;;;;;5031087;28;20044;-61
2023/08/10 12:09:28;;;;;;;3.80;2.60;;;;;;;;;;5025256;28;20429;-61
2023/08/10 12:11:54;;;;;;;3.20;2.30;;;;;;;;;;5030497;28;20025;-60
2023/08/10 12:14:24;;;;;;;2.65;2.40;;;;;;;;;;5023171;28;20065;-61
2023/08/10 12:16:50;;;;;;;4.53;2.50;;;;;;;;;;5023301;28;20540;-60
2023/08/10 12:19:16;;;;;;;3.28;2.42;;;;;;;;;;5023263;28;20049;-61
2023/08/10 12:21:42;;;;;;;4.28;2.50;;;;;;;;;;5025941;28;20033;-61
2023/08/10 12:24:08;;;;;;;3.42;2.53;;;;;;;;;;5026073;28;20034;-61
2023/08/10 12:26:34;;;;;;;2.70;2.40;;;;;;;;;;5024015;28;20025;-61
2023/08/10 12:29:01;;;;;;;3.42;2.50;;;;;;;;;;5026446;28;20527;-61
2023/08/10 12:31:28;;;;;;;3.15;2.42;;;;;;;;;;5024836;28;20033;-61
2023/08/10 12:33:56;;;;;;;3.00;2.40;;;;;;;;;;5026434;28;20041;-61
2023/08/10 12:36:22;;;;;;;3.58;2.08;;;;;;;;;;5025957;28;20032;-61
2023/08/10 12:38:48;;;;;;;2.13;1.92;;;;;;;;;;5021289;28;20049;-61
2023/08/10 12:41:14;;;;;;;2.47;2.03;;;;;;;;;;5023887;28;20036;-61
2023/08/10 12:43:40;;;;;;;3.25;2.40;;;;;;;;;;5008305;28;20064;-61
2023/08/10 12:46:07;;;;;;;2.85;2.55;;;;;;;;;;5024187;28;20033;-61
2023/08/10 12:48:33;;;;;;;5.30;2.50;;;;;;;;;;5023420;28;20421;-59
2023/08/10 12:50:59;;;;;;;3.83;2.22;;;;;;;;;;5024839;28;20420;-61
2023/08/10 12:53:26;;;;;;;2.85;2.25;;;;;;;;;;5025931;28;20065;-61
2023/08/10 12:55:52;;;;;;;2.78;2.15;;;;;;;;;;5027246;28;20045;-61
2023/08/10 12:58:18;;;;;;;2.78;2.47;;;;;;;;;;5024118;28;20048;-61
2023/08/10 13:00:44;;;;;;;4.25;2.50;;;;;;;;;;5019494;28;20057;-60
2023/08/10 13:03:11;;;;;;;3.97;2.55;;;;;;;;;;5028533;28;20033;-61
2023/08/10 13:05:37;;;;;;;3.10;2.60;;;;;;;;;;5025964;28;20037;-61
2023/08/10 13:08:04;;;;;;;3.10;2.40;;;;;;;;;;5025816;28;20049;-61
2023/08/10 13:10:30;;;;;;;2.83;2.15;;;;;;;;;;5025617;28;20037;-61
2023/08/10 13:12:56;;;;;;;2.65;2.45;;;;;;;;;;5023909;28;20056;-61
2023/08/10 13:15:23;;;;;;;3.50;2.40;;;;;;;;;;5024413;28;20044;-61
2023/08/10 13:17:49;;;;;;;3.17;2.30;;;;;;;;;;5022471;28;20404;-61
2023/08/10 13:20:15;;;;;;;3.17;2.50;;;;;;;;;;5022855;28;20053;-61
2023/08/10 13:22:44;;;;;;;3.72;2.63;;;;;;;;;;5020586;28;20388;-61
2023/08/10 13:25:10;;;;;;;3.40;2.60;;;;;;;;;;5019730;28;20045;-61
2023/08/10 13:27:36;;;;;;;3.20;2.30;;;;;;;;;;5021110;28;20048;-61
2023/08/10 13:30:03;;;;;;;3.20;2.60;;;;;;;;;;5020680;28;20038;-61
2023/08/10 13:32:30;;;;;;;3.10;2.60;;;;;;;;;;5020643;28;20032;-61
2023/08/10 13:34:56;;;;;;;2.90;2.45;;;;;;;;;;5022379;28;20033;-61
2023/08/10 13:37:22;;;;;;;3.00;2.35;;;;;;;;;;5022867;28;20040;-60
2023/08/10 13:39:48;;;;;;;3.17;2.28;;;;;;;;;;5021648;28;20052;-61
2023/08/10 13:42:14;;;;;;;3.28;2.17;;;;;;;;;;5022128;28;20056;-61
2023/08/10 13:44:41;;;;;;;3.30;2.63;;;;;;;;;;5025309;28;20040;-61
2023/08/10 13:47:07;;;;;;;3.33;2.60;;;;;;;;;;5026129;28;20045;-61
2023/08/10 13:49:34;;;;;;;2.97;2.67;;;;;;;;;;5024942;28;20040;-61
2023/08/10 13:52:00;;;;;;;2.55;2.30;;;;;;;;;;5027032;28;20030;-61
2023/08/10 13:54:27;;;;;;;3.38;2.55;;;;;;;;;;5022824;28;20036;-61
2023/08/10 13:56:57;;;;;;;2.65;2.20;;;;;;;;;;5028616;28;20040;-61
2023/08/10 13:59:25;;;;;;;3.95;2.60;;;;;;;;;;5021068;28;20058;-61
2023/08/10 14:01:51;;;;;;;2.63;2.20;;;;;;;;;;5025179;28;20061;-61
2023/08/10 14:04:18;;;;;;;2.85;2.50;;;;;;;;;;5015698;28;20516;-62
2023/08/10 14:06:44;;;;;;;2.63;2.33;;;;;;;;;;5023786;28;20065;-61
2023/08/10 14:09:10;;;;;;;2.88;2.30;;;;;;;;;;5015355;28;20057;-61
2023/08/10 14:11:37;;;;;;;2.50;2.22;;;;;;;;;;5012237;28;20060;-61
2023/08/10 14:14:04;;;;;;;2.80;2.47;;;;;;;;;;5017233;28;20378;-62
2023/08/10 14:16:30;;;;;;;4.22;2.60;;;;;;;;;;5017669;28;20060;-61
2023/08/10 14:18:57;;;;;;;4.18;2.63;;;;;;;;;;5015668;28;20044;-62
2023/08/10 14:21:23;;;;;;;2.60;2.13;;;;;;;;;;5016141;28;20045;-62
2023/08/10 14:23:49;;;;;;;5.88;2.90;;;;;;;;;;5015262;28;20042;-61
2023/08/10 14:26:15;;;;;;;2.45;2.10;;;;;;;;;;5017613;28;20423;-61
2023/08/10 14:28:41;;;;;;;3.25;2.60;;;;;;;;;;5017752;28;20101;-61
2023/08/10 14:31:07;;;;;;;2.72;2.30;;;;;;;;;;5019473;28;20114;-61
2023/08/10 14:33:33;;;;;;;2.75;2.45;;;;;;;;;;5023082;28;20052;-61
2023/08/10 14:35:59;;;;;;;3.85;2.42;;;;;;;;;;5025208;28;20441;-62
2023/08/10 14:38:25;;;;;;;3.42;2.20;;;;;;;;;;5026931;28;20369;-60
2023/08/10 14:40:51;;;;;;;2.72;2.45;;;;;;;;;;5021532;28;20052;-62
2023/08/10 14:43:17;;;;;;;2.92;2.30;;;;;;;;;;5018372;28;20053;-61
2023/08/10 14:45:43;;;;;;;3.00;2.35;;;;;;;;;;5021213;28;20052;-62